createdAt,value
2023-03-03T00:03:12.519Z,33.60
2023-03-03T00:08:14.009Z,33.60
2023-03-03T00:13:15.408Z,33.80
2023-03-03T00:18:16.804Z,33.80
2023-03-03T00:23:18.245Z,33.80
2023-03-03T00:28:19.654Z,33.80
2023-03-03T00:33:21.061Z,33.90
2023-03-03T00:38:22.526Z,33.60
2023-03-03T00:43:23.932Z,32.40
2023-03-03T00:48:25.347Z,32.90
2023-03-03T00:53:26.757Z,32.70
2023-03-03T00:58:28.166Z,32.40
2023-03-03T01:03:29.580Z,32.10
2023-03-03T01:08:31.010Z,31.70
2023-03-03T01:13:32.421Z,31.40
2023-03-03T01:18:33.846Z,31.20
2023-03-03T01:23:35.270Z,31.00
2023-03-03T01:28:36.707Z,30.90
2023-03-03T01:33:38.111Z,30.80
2023-03-03T01:38:39.516Z,30.90
2023-03-03T01:43:40.914Z,30.80
2023-03-03T01:48:42.352Z,30.90
2023-03-03T01:53:43.758Z,30.90
2023-03-03T01:58:45.197Z,31.00
2023-03-03T02:03:46.617Z,31.00
2023-03-03T02:08:48.062Z,31.00
2023-03-03T02:13:49.521Z,31.10
2023-03-03T02:18:50.916Z,31.20
2023-03-03T02:23:52.383Z,31.20
2023-03-03T02:28:53.792Z,31.30
2023-03-03T02:33:55.226Z,31.50
2023-03-03T02:38:56.650Z,31.40
2023-03-03T02:43:58.078Z,31.40
2023-03-03T02:48:59.481Z,31.30
2023-03-03T02:54:00.869Z,31.20
2023-03-03T02:59:02.301Z,31.20
2023-03-03T03:04:03.751Z,31.10
2023-03-03T03:09:05.173Z,31.10
2023-03-03T03:14:06.607Z,31.10
2023-03-03T03:19:08.087Z,31.10
2023-03-03T03:24:09.501Z,31.20
2023-03-03T03:29:10.916Z,31.20
2023-03-03T03:34:12.318Z,31.20
2023-03-03T03:39:13.726Z,31.30
2023-03-03T03:44:15.137Z,31.30
2023-03-03T03:49:16.656Z,31.40
2023-03-03T03:54:18.055Z,31.40
2023-03-03T03:59:19.474Z,31.40
2023-03-03T04:04:20.886Z,31.40
2023-03-03T04:09:22.522Z,31.40
2023-03-03T04:14:24.058Z,31.50
2023-03-03T04:19:25.540Z,31.50
2023-03-03T04:24:26.944Z,31.60
2023-03-03T04:29:28.356Z,31.50
2023-03-03T04:34:29.768Z,31.60
2023-03-03T04:39:31.189Z,31.50
2023-03-03T04:44:32.581Z,31.60
2023-03-03T04:49:33.979Z,31.70
2023-03-03T04:54:35.380Z,31.70
2023-03-03T04:59:36.798Z,31.40
2023-03-03T05:04:38.290Z,31.10
2023-03-03T05:09:39.734Z,31.40
2023-03-03T05:14:41.133Z,30.50
2023-03-03T05:19:42.681Z,30.20
2023-03-03T05:24:44.100Z,30.10
2023-03-03T05:29:45.500Z,30.00
2023-03-03T05:34:46.924Z,30.00
2023-03-03T05:39:48.350Z,30.00
2023-03-03T05:44:49.754Z,30.00
2023-03-03T05:49:51.160Z,30.00
2023-03-03T05:54:52.584Z,30.20
2023-03-03T05:59:53.992Z,30.20
2023-03-03T06:04:55.384Z,30.40
2023-03-03T06:09:56.796Z,30.40
2023-03-03T06:14:58.202Z,30.60
2023-03-03T06:19:59.589Z,30.70
2023-03-03T06:25:00.976Z,30.80
2023-03-03T06:30:02.393Z,30.80
2023-03-03T06:35:03.857Z,31.00
2023-03-03T06:40:05.244Z,31.00
2023-03-03T06:45:06.656Z,31.00
2023-03-03T06:50:08.091Z,31.10
2023-03-03T06:55:09.502Z,31.20
2023-03-03T07:00:10.893Z,31.20
2023-03-03T07:05:12.292Z,31.20
2023-03-03T07:10:13.758Z,31.90
2023-03-03T07:15:15.177Z,31.30
2023-03-03T07:20:16.585Z,31.90
2023-03-03T07:25:17.993Z,31.30
2023-03-03T07:30:19.398Z,31.40
2023-03-03T07:35:20.825Z,31.40
2023-03-03T07:40:22.266Z,31.30
2023-03-03T07:45:23.759Z,31.10
2023-03-03T07:50:25.193Z,30.90
2023-03-03T07:55:26.613Z,30.80
2023-03-03T08:00:28.100Z,31.20
2023-03-03T08:05:29.580Z,30.50
2023-03-03T08:10:31.123Z,30.50
2023-03-03T08:15:32.664Z,30.50
2023-03-03T08:20:34.107Z,30.40
2023-03-03T08:25:35.511Z,30.50
2023-03-03T08:30:36.928Z,30.70
2023-03-03T08:35:38.415Z,30.70
2023-03-03T08:40:39.903Z,30.90
2023-03-03T08:45:41.320Z,30.90
2023-03-03T08:50:42.726Z,31.10
2023-03-03T08:55:44.256Z,31.50
2023-03-03T09:00:48.328Z,32.00
2023-03-03T09:05:50.686Z,31.40
2023-03-03T09:10:52.092Z,31.90
2023-03-03T09:15:53.503Z,32.20
2023-03-03T09:20:54.917Z,32.30
2023-03-03T09:25:56.313Z,32.60
2023-03-03T09:30:57.747Z,32.70
2023-03-03T09:35:59.201Z,32.70
2023-03-03T09:41:00.615Z,32.70
2023-03-03T09:46:02.030Z,32.80
2023-03-03T09:51:03.427Z,33.00
2023-03-03T09:56:04.849Z,33.00
2023-03-03T10:01:06.252Z,33.10
2023-03-03T10:06:07.641Z,33.20
2023-03-03T10:11:09.078Z,33.20
2023-03-03T10:16:10.529Z,33.50
2023-03-03T10:21:11.943Z,32.60
2023-03-03T10:26:13.362Z,32.30
2023-03-03T10:31:18.077Z,32.60
2023-03-03T10:36:20.402Z,32.80
2023-03-03T10:41:21.827Z,33.00
2023-03-03T10:46:23.247Z,33.20
2023-03-03T10:51:24.666Z,33.30
2023-03-03T10:56:26.087Z,33.40
2023-03-03T11:01:27.547Z,33.40
2023-03-03T11:06:29.058Z,33.50
2023-03-03T11:11:30.489Z,33.50
2023-03-03T11:16:31.989Z,33.50
2023-03-03T11:21:33.426Z,33.60
2023-03-03T11:26:34.906Z,33.30
2023-03-03T11:31:36.329Z,33.20
2023-03-03T11:36:37.731Z,33.00
2023-03-03T11:41:39.139Z,32.80
2023-03-03T11:46:40.560Z,32.40
2023-03-03T11:51:41.974Z,31.40
2023-03-03T11:56:43.401Z,30.60
2023-03-03T12:01:44.819Z,30.30
2023-03-03T12:06:46.267Z,30.00
2023-03-03T12:11:47.677Z,29.90
2023-03-03T12:16:49.082Z,30.00
2023-03-03T12:21:50.564Z,29.90
2023-03-03T12:26:52.023Z,30.00
2023-03-03T12:31:53.582Z,30.00
2023-03-03T12:36:55.102Z,30.20
2023-03-03T12:41:56.538Z,30.70
2023-03-03T12:46:58.021Z,31.20
2023-03-03T12:51:59.491Z,30.60
2023-03-03T12:57:00.957Z,31.10
2023-03-03T13:02:02.417Z,31.50
2023-03-03T13:07:03.891Z,31.70
2023-03-03T13:12:05.483Z,31.80
2023-03-03T13:17:07.111Z,31.90
2023-03-03T13:22:08.726Z,31.80
2023-03-03T13:27:10.366Z,31.70
2023-03-03T13:32:11.840Z,31.60
2023-03-03T13:37:13.270Z,31.60
2023-03-03T13:42:14.717Z,31.70
2023-03-03T13:47:16.208Z,31.80
2023-03-03T13:52:17.675Z,32.00
2023-03-03T13:57:19.123Z,31.40
2023-03-03T14:02:20.599Z,31.10
2023-03-03T14:07:22.107Z,30.90
2023-03-03T14:12:23.620Z,31.10
2023-03-03T14:17:25.096Z,31.10
2023-03-03T14:22:27.656Z,31.20
2023-03-03T14:27:29.147Z,31.20
2023-03-03T14:32:44.400Z,31.00
2023-03-03T14:37:46.451Z,31.00
2023-03-03T14:42:47.905Z,30.80
2023-03-03T14:47:49.364Z,30.50
2023-03-03T14:52:50.911Z,30.50
2023-03-03T14:57:52.383Z,30.40
2023-03-03T15:02:53.811Z,30.60
2023-03-03T15:07:55.295Z,30.60
2023-03-03T15:12:56.862Z,30.60
2023-03-03T15:17:58.371Z,30.80
2023-03-03T15:23:01.889Z,30.90
2023-03-03T15:28:03.344Z,31.00
2023-03-03T15:33:04.840Z,31.20
2023-03-03T15:38:06.312Z,31.30
2023-03-03T15:43:07.798Z,31.40
2023-03-03T15:48:09.245Z,32.10
2023-03-03T15:53:10.679Z,31.60
2023-03-03T15:58:12.125Z,31.70
2023-03-03T16:03:13.576Z,31.70
2023-03-03T16:08:15.014Z,31.80
2023-03-03T16:13:16.438Z,31.80
2023-03-03T16:18:17.831Z,32.00
2023-03-03T16:23:19.249Z,32.00
2023-03-03T16:28:20.685Z,32.00
2023-03-03T16:33:22.103Z,32.20
2023-03-03T16:38:23.523Z,32.20
2023-03-03T16:43:24.964Z,32.60
2023-03-03T16:48:26.373Z,32.50
2023-03-03T16:53:27.778Z,32.20
2023-03-03T16:58:29.191Z,32.20
2023-03-03T17:03:30.631Z,32.10
2023-03-03T17:08:32.048Z,31.80
2023-03-03T17:13:33.455Z,32.00
2023-03-03T17:18:36.137Z,31.80
2023-03-03T17:23:40.506Z,31.10
2023-03-03T17:28:42.073Z,30.90
2023-03-03T17:33:43.490Z,30.60
2023-03-03T17:38:44.912Z,30.30
2023-03-03T17:43:46.329Z,29.80
2023-03-03T17:48:47.726Z,29.20
2023-03-03T17:53:49.153Z,28.70
2023-03-03T17:58:50.668Z,28.60
2023-03-03T18:03:52.276Z,28.70
2023-03-03T18:09:01.985Z,28.60
2023-03-03T18:14:13.169Z,28.80
2023-03-03T18:19:14.577Z,28.60
2023-03-03T18:24:15.984Z,28.40
2023-03-03T18:29:17.411Z,28.40
2023-03-03T18:34:18.821Z,28.20
2023-03-03T18:39:20.410Z,28.00
2023-03-03T18:44:21.912Z,27.80
2023-03-03T18:49:23.378Z,27.90
2023-03-03T18:54:24.777Z,27.80
2023-03-03T18:59:26.185Z,27.60
2023-03-03T19:04:27.633Z,27.30
2023-03-03T19:09:29.092Z,27.90
2023-03-03T19:14:30.493Z,28.20
2023-03-03T19:19:31.909Z,28.40
2023-03-03T19:24:33.312Z,29.10
2023-03-03T19:29:34.743Z,28.50
2023-03-03T19:34:36.222Z,28.50
2023-03-03T19:39:37.719Z,28.50
2023-03-03T19:44:39.299Z,28.50
2023-03-03T19:49:40.747Z,28.50
2023-03-03T19:54:42.281Z,28.60
2023-03-03T19:59:44.821Z,28.90
2023-03-03T20:04:46.358Z,28.90
2023-03-03T20:09:47.930Z,28.80
2023-03-03T20:14:49.417Z,28.80
2023-03-03T20:19:51.025Z,29.30
2023-03-03T20:24:52.526Z,29.60
2023-03-03T20:29:53.921Z,29.40
2023-03-03T20:34:55.325Z,29.40
2023-03-03T20:39:56.743Z,29.80
2023-03-03T20:44:58.162Z,30.20
2023-03-03T20:49:59.613Z,30.50
2023-03-03T20:55:01.146Z,30.80
2023-03-03T21:00:02.568Z,30.70
2023-03-03T21:05:03.980Z,31.20
2023-03-03T21:10:05.402Z,31.60
2023-03-03T21:15:06.811Z,31.70
2023-03-03T21:20:08.210Z,32.00
2023-03-03T21:25:09.621Z,31.30
2023-03-03T21:30:11.032Z,31.40
2023-03-03T21:35:12.439Z,31.10
2023-03-03T21:40:13.844Z,31.00
2023-03-03T21:45:15.261Z,31.30
2023-03-03T21:50:16.668Z,31.70
2023-03-03T21:55:18.084Z,31.70
2023-03-03T22:00:19.512Z,31.60
2023-03-03T22:05:20.928Z,31.80
2023-03-03T22:10:22.344Z,32.10
2023-03-03T22:15:23.767Z,32.20
2023-03-03T22:20:25.165Z,32.40
2023-03-03T22:25:26.588Z,32.40
2023-03-03T22:30:27.997Z,32.50
2023-03-03T22:35:29.420Z,32.50
2023-03-03T22:40:30.870Z,32.50
2023-03-03T22:45:32.293Z,32.60
2023-03-03T22:50:33.701Z,32.70
2023-03-03T22:55:35.285Z,32.70
2023-03-03T23:00:36.727Z,33.00
2023-03-03T23:05:38.181Z,33.00
2023-03-03T23:10:39.640Z,33.20
2023-03-03T23:15:41.158Z,32.80
2023-03-03T23:20:42.601Z,32.90
2023-03-03T23:25:44.011Z,32.80
2023-03-03T23:30:45.442Z,32.90
2023-03-03T23:35:46.908Z,33.20
2023-03-03T23:40:48.348Z,33.10
2023-03-03T23:45:49.814Z,33.10
2023-03-03T23:50:51.247Z,33.00
2023-03-03T23:55:52.659Z,33.00
